createdAt,value
2022-10-28T00:01:17.865Z,7.82
2022-10-28T00:03:54.059Z,7.72
2022-10-28T00:06:28.729Z,7.85
2022-10-28T00:08:56.722Z,7.78
2022-10-28T00:11:34.958Z,7.65
2022-10-28T00:14:04.442Z,7.60
2022-10-28T00:16:34.004Z,7.51
2022-10-28T00:19:03.879Z,7.59
2022-10-28T00:21:34.575Z,7.59
2022-10-28T00:24:05.836Z,7.54
2022-10-28T00:26:38.224Z,7.54
2022-10-28T00:29:11.297Z,7.62
2022-10-28T00:31:39.502Z,7.02
2022-10-28T00:34:09.633Z,7.65
2022-10-28T00:36:39.506Z,7.64
2022-10-28T00:39:13.087Z,7.55
2022-10-28T00:41:42.940Z,7.62
2022-10-28T00:44:40.954Z,7.67
2022-10-28T00:47:17.072Z,7.68
2022-10-28T00:49:46.347Z,7.66
2022-10-28T00:52:18.911Z,7.55
2022-10-28T00:54:46.849Z,7.57
2022-10-28T00:57:18.871Z,7.47
2022-10-28T00:59:50.038Z,7.49
2022-10-28T01:02:17.646Z,7.49
2022-10-28T01:04:45.055Z,7.53
2022-10-28T01:07:12.215Z,7.59
2022-10-28T01:09:40.430Z,7.49
2022-10-28T01:12:07.395Z,7.48
2022-10-28T01:15:03.642Z,7.44
2022-10-28T01:17:54.722Z,7.46
2022-10-28T01:20:27.959Z,7.40
2022-10-28T01:23:25.310Z,7.41
2022-10-28T01:26:26.115Z,7.33
2022-10-28T01:29:11.929Z,7.45
2022-10-28T01:31:55.231Z,7.41
2022-10-28T01:34:28.353Z,7.42
2022-10-28T01:37:08.762Z,7.53
2022-10-28T01:39:42.782Z,7.53
2022-10-28T01:42:17.323Z,7.47
2022-10-28T01:45:04.683Z,7.50
2022-10-28T01:48:10.088Z,7.44
2022-10-28T01:51:01.312Z,7.44
2022-10-28T01:53:33.987Z,7.43
2022-10-28T01:56:05.635Z,7.39
2022-10-28T01:58:33.983Z,7.47
2022-10-28T02:01:05.086Z,7.49
2022-10-28T02:03:32.225Z,7.51
2022-10-28T02:06:03.699Z,7.44
2022-10-28T02:08:39.834Z,7.57
2022-10-28T02:11:21.780Z,7.50
2022-10-28T02:14:19.322Z,7.47
2022-10-28T02:17:22.632Z,7.36
2022-10-28T02:20:21.412Z,7.28
2022-10-28T02:22:58.907Z,7.34
2022-10-28T02:25:34.228Z,7.29
2022-10-28T02:28:12.461Z,7.35
2022-10-28T02:30:52.273Z,7.33
2022-10-28T02:33:23.809Z,7.34
2022-10-28T02:35:57.646Z,7.50
2022-10-28T02:38:35.052Z,7.38
2022-10-28T02:41:10.760Z,7.27
2022-10-28T02:43:40.464Z,7.11
2022-10-28T02:46:09.683Z,7.09
2022-10-28T02:48:51.632Z,6.93
2022-10-28T02:51:34.698Z,7.05
2022-10-28T02:54:13.428Z,7.16
2022-10-28T02:57:30.102Z,7.10
2022-10-28T03:00:00.704Z,7.00
2022-10-28T03:02:28.897Z,7.01
2022-10-28T03:04:55.718Z,7.00
2022-10-28T03:07:23.008Z,6.96
2022-10-28T03:09:50.200Z,6.89
2022-10-28T03:12:17.369Z,6.88
2022-10-28T03:14:44.411Z,6.85
2022-10-28T03:17:11.165Z,6.78
2022-10-28T03:19:38.180Z,6.89
2022-10-28T03:22:05.349Z,6.90
2022-10-28T03:24:32.528Z,6.93
2022-10-28T03:27:00.004Z,7.01
2022-10-28T03:29:27.127Z,7.03
2022-10-28T03:31:53.898Z,7.04
2022-10-28T03:34:20.923Z,7.13
2022-10-28T03:36:48.077Z,7.21
2022-10-28T03:39:15.478Z,7.23
2022-10-28T03:41:42.228Z,7.16
2022-10-28T03:44:09.363Z,7.16
2022-10-28T03:46:36.410Z,7.17
2022-10-28T03:49:04.047Z,7.10
2022-10-28T03:51:31.261Z,7.07
2022-10-28T03:53:58.397Z,7.10
2022-10-28T03:56:25.350Z,7.07
2022-10-28T04:01:19.364Z,6.93
2022-10-28T04:03:46.987Z,6.89
2022-10-28T04:06:14.579Z,6.85
2022-10-28T04:08:41.609Z,6.96
2022-10-28T04:11:08.667Z,6.82
2022-10-28T04:13:36.250Z,6.82
2022-10-28T04:16:03.363Z,6.76
2022-10-28T04:18:30.598Z,6.70
2022-10-28T04:20:57.754Z,6.60
2022-10-28T04:23:25.040Z,6.66
2022-10-28T04:25:54.083Z,6.67
2022-10-28T04:28:24.216Z,6.65
2022-10-28T04:30:51.600Z,6.71
2022-10-28T04:33:18.810Z,6.71
2022-10-28T04:35:45.835Z,6.70
2022-10-28T04:38:14.140Z,6.74
2022-10-28T04:40:41.728Z,6.67
2022-10-28T04:43:12.019Z,6.50
2022-10-28T04:45:41.572Z,6.54
2022-10-28T04:48:10.610Z,6.47
2022-10-28T04:50:37.869Z,6.47
2022-10-28T04:53:14.237Z,6.44
2022-10-28T04:55:41.996Z,6.45
2022-10-28T04:58:12.726Z,6.45
2022-10-28T05:00:40.037Z,6.55
2022-10-28T05:03:07.187Z,6.57
2022-10-28T05:05:34.570Z,6.68
2022-10-28T05:08:02.560Z,6.66
2022-10-28T05:10:30.641Z,6.70
2022-10-28T05:12:57.557Z,6.65
2022-10-28T05:15:26.703Z,6.64
2022-10-28T05:17:53.976Z,6.62
2022-10-28T05:20:21.313Z,6.49
2022-10-28T05:22:50.874Z,6.51
2022-10-28T05:25:18.416Z,6.62
2022-10-28T05:27:45.486Z,6.62
2022-10-28T05:30:13.466Z,6.74
2022-10-28T05:32:40.440Z,6.68
2022-10-28T05:35:08.630Z,6.76
2022-10-28T05:37:35.671Z,6.83
2022-10-28T05:40:04.838Z,6.94
2022-10-28T05:42:31.970Z,6.97
2022-10-28T05:44:59.080Z,7.04
2022-10-28T05:47:26.163Z,7.08
2022-10-28T05:49:53.278Z,7.23
2022-10-28T05:52:20.361Z,7.30
2022-10-28T05:54:47.617Z,7.56
2022-10-28T05:57:17.149Z,7.74
2022-10-28T05:59:44.765Z,7.86
2022-10-28T06:02:15.242Z,7.99
2022-10-28T06:04:42.737Z,7.97
2022-10-28T06:07:10.164Z,8.03
2022-10-28T06:09:37.414Z,8.09
2022-10-28T06:12:05.339Z,8.11
2022-10-28T06:14:33.060Z,8.19
2022-10-28T06:17:00.241Z,8.38
2022-10-28T06:19:27.295Z,8.48
2022-10-28T06:21:58.372Z,8.55
2022-10-28T06:24:25.511Z,8.61
2022-10-28T06:26:52.829Z,8.53
2022-10-28T06:29:19.832Z,8.85
2022-10-28T06:31:46.929Z,8.97
2022-10-28T06:34:14.039Z,9.18
2022-10-28T06:36:41.195Z,9.32
2022-10-28T06:39:08.317Z,9.53
2022-10-28T06:41:35.567Z,9.71
2022-10-28T06:44:02.573Z,9.79
2022-10-28T06:46:30.120Z,10.12
2022-10-28T06:48:59.446Z,10.30
2022-10-28T06:51:27.067Z,10.43
2022-10-28T06:53:54.446Z,10.56
2022-10-28T06:56:24.797Z,10.75
2022-10-28T06:58:55.157Z,10.84
2022-10-28T07:01:29.997Z,10.99
2022-10-28T07:03:57.135Z,11.07
2022-10-28T07:06:24.174Z,11.28
2022-10-28T07:08:51.915Z,11.38
2022-10-28T07:11:19.321Z,11.43
2022-10-28T07:13:48.965Z,11.64
2022-10-28T07:16:16.537Z,11.78
2022-10-28T07:18:44.963Z,11.94
2022-10-28T07:21:12.731Z,12.07
2022-10-28T07:23:39.944Z,12.21
2022-10-28T07:26:07.772Z,12.28
2022-10-28T07:28:34.713Z,12.39
2022-10-28T07:31:02.843Z,12.53
2022-10-28T07:33:31.409Z,12.66
2022-10-28T07:35:58.632Z,12.86
2022-10-28T07:38:26.773Z,12.89
2022-10-28T07:40:54.059Z,13.11
2022-10-28T07:43:21.532Z,13.28
2022-10-28T07:45:50.529Z,13.39
2022-10-28T07:48:17.506Z,13.54
2022-10-28T07:50:45.243Z,13.67
2022-10-28T07:53:12.747Z,13.77
2022-10-28T07:55:39.835Z,13.83
2022-10-28T07:58:07.466Z,13.97
2022-10-28T08:00:34.814Z,14.18
2022-10-28T08:03:03.296Z,14.33
2022-10-28T08:05:33.898Z,14.43
2022-10-28T08:08:01.211Z,14.55
2022-10-28T08:10:28.192Z,14.67
2022-10-28T08:12:58.322Z,14.84
2022-10-28T08:15:25.847Z,14.89
2022-10-28T08:17:57.013Z,15.05
2022-10-28T08:20:24.378Z,15.12
2022-10-28T08:22:51.490Z,15.24
2022-10-28T08:25:18.857Z,15.37
2022-10-28T08:27:54.696Z,15.55
2022-10-28T08:30:22.161Z,15.71
2022-10-28T08:32:49.322Z,15.72
2022-10-28T08:35:19.310Z,15.86
2022-10-28T08:37:51.918Z,16.00
2022-10-28T08:40:32.977Z,16.05
2022-10-28T08:43:30.359Z,16.20
2022-10-28T08:46:20.398Z,16.36
2022-10-28T08:48:47.888Z,16.48
2022-10-28T08:51:18.599Z,16.54
2022-10-28T08:53:57.480Z,16.60
2022-10-28T08:56:57.547Z,16.76
2022-10-28T08:59:41.483Z,16.75
2022-10-28T09:02:16.249Z,16.93
2022-10-28T09:04:49.259Z,17.05
2022-10-28T09:07:22.925Z,17.09
2022-10-28T09:09:52.224Z,17.14
2022-10-28T09:12:34.346Z,17.23
2022-10-28T09:15:30.630Z,17.29
2022-10-28T09:18:33.487Z,17.38
2022-10-28T09:21:05.479Z,17.43
2022-10-28T09:23:56.793Z,17.52
2022-10-28T09:26:44.209Z,17.62
2022-10-28T09:29:39.297Z,17.67
2022-10-28T09:32:22.364Z,17.72
2022-10-28T09:34:56.646Z,17.84
2022-10-28T09:37:43.542Z,17.93
2022-10-28T09:40:20.012Z,18.10
2022-10-28T09:43:17.174Z,18.08
2022-10-28T09:45:48.337Z,18.25
2022-10-28T09:48:29.813Z,18.15
2022-10-28T09:50:58.838Z,18.29
2022-10-28T09:53:48.969Z,18.43
2022-10-28T09:56:16.594Z,18.37
2022-10-28T09:58:47.897Z,18.43
2022-10-28T10:01:17.226Z,18.40
2022-10-28T10:03:47.985Z,18.46
2022-10-28T10:06:43.073Z,18.45
2022-10-28T10:09:32.142Z,18.48
2022-10-28T10:12:10.487Z,18.58
2022-10-28T10:14:44.445Z,18.64
2022-10-28T10:17:18.646Z,18.78
2022-10-28T10:20:00.914Z,18.70
2022-10-28T10:22:37.906Z,18.78
2022-10-28T10:25:25.249Z,18.76
2022-10-28T10:28:05.519Z,18.72
2022-10-28T10:30:39.315Z,18.84
2022-10-28T10:33:16.823Z,18.89
2022-10-28T10:35:45.191Z,18.94
2022-10-28T10:38:15.771Z,18.95
2022-10-28T10:40:51.865Z,19.02
2022-10-28T10:43:19.022Z,19.06
2022-10-28T10:46:16.928Z,19.08
2022-10-28T10:48:45.037Z,19.11
2022-10-28T10:51:21.366Z,19.17
2022-10-28T10:53:50.888Z,19.25
2022-10-28T10:56:33.117Z,19.27
2022-10-28T10:59:03.932Z,19.34
2022-10-28T11:01:40.144Z,19.24
2022-10-28T11:04:18.914Z,19.27
2022-10-28T11:06:52.297Z,19.45
2022-10-28T11:09:37.181Z,19.43
2022-10-28T11:12:26.623Z,19.24
2022-10-28T11:15:02.649Z,19.36
2022-10-28T11:17:34.797Z,19.44
2022-10-28T11:20:33.102Z,19.49
2022-10-28T11:23:29.165Z,19.51
2022-10-28T11:26:04.015Z,19.61
2022-10-28T11:28:33.379Z,19.64
2022-10-28T11:31:16.239Z,19.81
2022-10-28T11:34:13.554Z,19.97
2022-10-28T11:37:09.773Z,20.00
2022-10-28T11:40:06.690Z,19.93
2022-10-28T11:42:49.765Z,19.79
2022-10-28T11:45:48.582Z,19.92
2022-10-28T11:48:40.211Z,19.94
2022-10-28T11:51:24.297Z,20.01
2022-10-28T11:53:57.486Z,20.08
2022-10-28T11:56:33.546Z,19.97
2022-10-28T11:59:24.162Z,20.07
2022-10-28T12:02:11.841Z,20.14
2022-10-28T12:04:51.215Z,20.18
2022-10-28T12:07:37.151Z,20.21
2022-10-28T12:10:14.674Z,20.07
2022-10-28T12:13:15.559Z,20.07
2022-10-28T12:16:11.847Z,20.04
2022-10-28T12:19:03.221Z,20.08
2022-10-28T12:21:41.908Z,20.05
2022-10-28T12:24:19.983Z,20.00
2022-10-28T12:26:52.211Z,20.05
2022-10-28T12:29:30.180Z,20.13
2022-10-28T12:31:57.293Z,20.20
2022-10-28T12:34:42.150Z,20.22
2022-10-28T12:37:14.715Z,20.35
2022-10-28T12:39:59.736Z,20.42
2022-10-28T12:42:36.876Z,20.44
2022-10-28T12:45:07.145Z,20.51
2022-10-28T12:48:06.095Z,20.49
2022-10-28T12:50:59.100Z,20.17
2022-10-28T12:53:55.479Z,20.58
2022-10-28T12:56:28.745Z,20.62
2022-10-28T12:59:20.632Z,20.67
2022-10-28T13:01:50.357Z,20.63
2022-10-28T13:04:18.845Z,20.64
2022-10-28T13:07:32.300Z,20.67
2022-10-28T13:10:07.139Z,20.77
2022-10-28T13:12:55.760Z,20.75
2022-10-28T13:16:04.632Z,20.56
2022-10-28T13:18:43.800Z,20.46
2022-10-28T13:21:29.629Z,20.40
2022-10-28T13:24:17.949Z,20.28
2022-10-28T13:26:46.905Z,20.19
2022-10-28T13:29:21.157Z,20.19
2022-10-28T13:31:49.257Z,20.03
2022-10-28T13:34:19.390Z,20.02
2022-10-28T13:36:57.556Z,19.95
2022-10-28T13:39:33.855Z,19.89
2022-10-28T13:42:12.997Z,19.88
2022-10-28T13:44:55.936Z,19.82
2022-10-28T13:47:31.128Z,19.77
2022-10-28T13:50:11.079Z,19.81
2022-10-28T13:52:43.376Z,19.77
2022-10-28T13:55:21.529Z,19.71
2022-10-28T13:58:10.982Z,19.68
2022-10-28T14:00:41.172Z,19.63
2022-10-28T14:03:22.215Z,19.54
2022-10-28T14:05:53.966Z,19.51
2022-10-28T14:08:29.963Z,19.48
2022-10-28T14:11:10.112Z,19.49
2022-10-28T14:14:00.191Z,19.42
2022-10-28T14:16:33.529Z,19.42
2022-10-28T14:19:10.045Z,19.37
2022-10-28T14:21:40.758Z,19.31
2022-10-28T14:24:14.675Z,19.24
2022-10-28T14:27:10.047Z,19.29
2022-10-28T14:29:53.080Z,19.26
2022-10-28T14:32:32.916Z,19.15
2022-10-28T14:35:11.304Z,19.13
2022-10-28T14:38:04.369Z,19.15
2022-10-28T14:41:02.215Z,19.11
2022-10-28T14:43:43.020Z,18.99
2022-10-28T14:46:13.553Z,18.98
2022-10-28T14:48:54.018Z,18.91
2022-10-28T14:51:42.623Z,18.81
2022-10-28T14:54:16.008Z,18.68
2022-10-28T14:56:44.351Z,18.30
2022-10-28T14:59:33.675Z,18.44
2022-10-28T15:02:24.701Z,18.32
2022-10-28T15:05:20.904Z,18.17
2022-10-28T15:07:48.939Z,18.05
2022-10-28T15:10:34.153Z,17.95
2022-10-28T15:13:01.310Z,17.84
2022-10-28T15:15:31.427Z,17.73
2022-10-28T15:18:01.312Z,17.64
2022-10-28T15:20:30.582Z,17.56
2022-10-28T15:23:18.582Z,17.40
2022-10-28T15:25:46.188Z,17.28
2022-10-28T15:28:14.322Z,17.22
2022-10-28T15:30:46.444Z,17.15
2022-10-28T15:33:32.167Z,17.00
2022-10-28T15:36:24.311Z,16.96
2022-10-28T15:39:03.349Z,16.85
2022-10-28T15:41:30.303Z,16.78
2022-10-28T15:44:02.691Z,16.62
2022-10-28T15:46:32.165Z,16.63
2022-10-28T15:49:02.726Z,16.57
2022-10-28T15:51:30.041Z,16.48
2022-10-28T15:54:18.835Z,16.34
2022-10-28T15:57:04.239Z,16.29
2022-10-28T15:59:31.317Z,16.20
2022-10-28T16:01:59.683Z,16.14
2022-10-28T16:04:26.757Z,16.06
2022-10-28T16:06:57.584Z,15.90
2022-10-28T16:09:35.262Z,15.89
2022-10-28T16:12:17.906Z,15.70
2022-10-28T16:14:54.043Z,15.64
2022-10-28T16:17:30.497Z,15.53
2022-10-28T16:20:17.298Z,15.41
2022-10-28T16:22:47.302Z,15.32
2022-10-28T16:25:20.782Z,15.32
2022-10-28T16:27:51.364Z,15.25
2022-10-28T16:30:18.834Z,15.12
2022-10-28T16:32:50.202Z,15.03
2022-10-28T16:35:22.089Z,15.05
2022-10-28T16:37:54.780Z,14.99
2022-10-28T16:43:21.741Z,14.78
2022-10-28T16:45:50.165Z,14.69
2022-10-28T16:48:19.133Z,14.55
2022-10-28T16:50:52.010Z,14.47
2022-10-28T16:53:19.942Z,14.50
2022-10-28T16:55:47.193Z,14.41
2022-10-28T16:58:15.716Z,14.34
2022-10-28T17:00:43.840Z,14.27
2022-10-28T17:03:14.965Z,14.20
2022-10-28T17:05:42.882Z,14.15
2022-10-28T17:08:11.726Z,14.07
2022-10-28T17:10:42.784Z,14.06
2022-10-28T17:13:14.304Z,13.90
2022-10-28T17:15:43.164Z,13.81
2022-10-28T17:18:12.209Z,13.71
2022-10-28T17:20:39.595Z,13.66
2022-10-28T17:23:06.962Z,13.60
2022-10-28T17:25:34.178Z,13.51
2022-10-28T17:28:01.725Z,13.44
2022-10-28T17:30:28.968Z,13.47
2022-10-28T17:32:55.964Z,13.38
2022-10-28T17:35:23.550Z,13.36
2022-10-28T17:37:50.437Z,13.31
2022-10-28T17:40:17.925Z,13.27
2022-10-28T17:42:45.506Z,13.18
2022-10-28T17:45:14.443Z,13.13
2022-10-28T17:47:43.612Z,13.05
2022-10-28T17:50:10.759Z,12.97
2022-10-28T17:52:38.678Z,12.90
2022-10-28T17:55:06.271Z,12.72
2022-10-28T17:57:33.189Z,12.68
2022-10-28T18:00:00.263Z,12.59
2022-10-28T18:02:27.401Z,12.49
2022-10-28T18:04:54.551Z,12.44
2022-10-28T18:07:21.666Z,12.38
2022-10-28T18:09:48.849Z,12.32
2022-10-28T18:12:15.823Z,12.29
2022-10-28T18:14:42.996Z,12.17
2022-10-28T18:17:14.360Z,12.13
2022-10-28T18:19:42.135Z,11.97
2022-10-28T18:22:09.263Z,11.96
2022-10-28T18:24:36.180Z,11.90
2022-10-28T18:27:03.182Z,11.87
2022-10-28T18:29:30.181Z,11.90
2022-10-28T18:31:57.635Z,11.83
2022-10-28T18:34:27.756Z,11.76
2022-10-28T18:36:54.876Z,11.73
2022-10-28T18:39:22.516Z,11.69
2022-10-28T18:41:53.270Z,11.62
2022-10-28T18:44:29.821Z,11.52
2022-10-28T18:46:57.192Z,11.48
2022-10-28T18:49:24.760Z,11.42
2022-10-28T18:51:53.900Z,11.35
2022-10-28T18:54:22.670Z,11.26
2022-10-28T18:56:53.568Z,11.20
2022-10-28T18:59:24.836Z,11.24
2022-10-28T19:01:52.304Z,11.19
2022-10-28T19:04:19.335Z,11.12
2022-10-28T19:06:47.685Z,11.06
2022-10-28T19:09:14.838Z,11.02
2022-10-28T19:11:41.852Z,10.79
2022-10-28T19:14:10.012Z,10.92
2022-10-28T19:16:37.266Z,10.90
2022-10-28T19:19:05.320Z,10.89
2022-10-28T19:21:33.209Z,10.88
2022-10-28T19:24:00.986Z,10.83
2022-10-28T19:26:30.452Z,10.79
2022-10-28T19:28:57.671Z,10.80
2022-10-28T19:31:27.048Z,10.76
2022-10-28T19:33:56.372Z,10.70
2022-10-28T19:36:38.941Z,10.73
2022-10-28T19:39:05.729Z,10.67
2022-10-28T19:41:32.783Z,10.66
2022-10-28T19:44:07.608Z,10.64
2022-10-28T19:46:36.030Z,10.54
2022-10-28T19:49:06.874Z,10.60
2022-10-28T19:51:39.076Z,10.53
2022-10-28T19:54:10.206Z,10.49
2022-10-28T19:56:39.076Z,10.37
2022-10-28T19:59:07.153Z,10.45
2022-10-28T20:01:46.862Z,10.45
2022-10-28T20:04:14.153Z,10.38
2022-10-28T20:06:41.426Z,10.39
2022-10-28T20:09:08.935Z,10.37
2022-10-28T20:11:39.183Z,10.34
2022-10-28T20:14:12.988Z,10.33
2022-10-28T20:17:06.709Z,10.32
2022-10-28T20:19:38.235Z,10.24
2022-10-28T20:22:05.585Z,10.18
2022-10-28T20:24:39.888Z,10.06
2022-10-28T20:27:20.178Z,10.05
2022-10-28T20:29:47.175Z,10.04
2022-10-28T20:32:15.215Z,10.04
2022-10-28T20:34:43.470Z,10.03
2022-10-28T20:37:10.477Z,9.96
2022-10-28T20:39:38.660Z,9.99
2022-10-28T20:42:05.661Z,9.88
2022-10-28T20:44:37.753Z,9.90
2022-10-28T20:47:04.787Z,9.91
2022-10-28T20:49:32.993Z,9.98
2022-10-28T20:52:00.969Z,10.01
2022-10-28T20:54:27.981Z,10.02
2022-10-28T20:56:54.996Z,10.00
2022-10-28T20:59:22.078Z,9.95
2022-10-28T21:01:50.726Z,9.92
2022-10-28T21:04:17.900Z,9.83
2022-10-28T21:06:44.993Z,9.74
2022-10-28T21:09:12.355Z,9.73
2022-10-28T21:11:39.305Z,9.62
2022-10-28T21:14:06.404Z,9.60
2022-10-28T21:16:33.521Z,9.51
2022-10-28T21:19:00.905Z,9.45
2022-10-28T21:21:28.313Z,9.38
2022-10-28T21:23:55.384Z,9.27
2022-10-28T21:26:22.497Z,9.17
2022-10-28T21:28:51.897Z,9.18
2022-10-28T21:31:21.539Z,8.87
2022-10-28T21:36:19.061Z,9.01
2022-10-28T21:38:46.565Z,8.91
2022-10-28T21:41:17.341Z,8.80
2022-10-28T21:43:48.050Z,8.69
2022-10-28T21:46:16.349Z,8.65
2022-10-28T21:48:43.518Z,8.68
2022-10-28T21:51:14.773Z,8.68
2022-10-28T21:53:43.774Z,8.66
2022-10-28T21:56:18.144Z,8.68
2022-10-28T21:58:47.885Z,8.62
2022-10-28T22:01:21.945Z,8.61
2022-10-28T22:03:50.298Z,8.56
2022-10-28T22:06:17.574Z,8.34
2022-10-28T22:08:45.003Z,8.48
2022-10-28T22:11:17.617Z,8.43
2022-10-28T22:13:44.848Z,8.34
2022-10-28T22:16:16.721Z,8.40
2022-10-28T22:18:44.947Z,8.42
2022-10-28T22:21:20.608Z,8.41
2022-10-28T22:23:48.147Z,8.35
2022-10-28T22:26:19.314Z,8.26
2022-10-28T22:28:46.835Z,8.23
2022-10-28T22:31:19.718Z,7.82
2022-10-28T22:36:21.415Z,7.91
2022-10-28T22:38:49.123Z,8.01
2022-10-28T22:41:20.442Z,8.00
2022-10-28T22:43:51.879Z,7.89
2022-10-28T22:46:19.450Z,7.89
2022-10-28T22:48:47.022Z,8.04
2022-10-28T22:51:15.595Z,8.08
2022-10-28T22:53:43.170Z,7.96
2022-10-28T22:56:15.837Z,7.85
2022-10-28T22:58:42.842Z,7.94
2022-10-28T23:01:19.027Z,7.90
2022-10-28T23:03:47.662Z,7.94
2022-10-28T23:06:16.828Z,7.85
2022-10-28T23:08:45.187Z,7.94
2022-10-28T23:11:13.141Z,7.89
2022-10-28T23:13:40.463Z,7.90
2022-10-28T23:16:16.086Z,7.92
2022-10-28T23:18:44.027Z,7.88
2022-10-28T23:21:13.624Z,7.84
2022-10-28T23:23:42.201Z,7.90
2022-10-28T23:26:10.779Z,7.90
2022-10-28T23:28:37.797Z,7.89
2022-10-28T23:31:06.907Z,7.94
2022-10-28T23:33:35.139Z,7.91
2022-10-28T23:36:06.458Z,7.88
2022-10-28T23:38:33.323Z,7.86
2022-10-28T23:41:03.201Z,7.85
2022-10-28T23:43:31.709Z,7.91
2022-10-28T23:45:59.291Z,7.93
2022-10-28T23:48:28.336Z,7.84
2022-10-28T23:50:55.996Z,7.93
2022-10-28T23:53:24.356Z,7.97
2022-10-28T23:55:52.594Z,7.96
2022-10-28T23:58:20.895Z,7.91
